Time;durP1;ratioP1;P1;durP2;ratioP2;P2;SDS_P1;SDS_P2;PMS_P1;PMS_P2;Temp;Humidity;BMP_temperature;BMP_pressure;BME280_temperature;BME280_humidity;BME280_pressure;Samples;Min_cycle;Max_cycle;Signal;HPM_P1;HPM_P2
2022/01/06 00:01:16;;;;;;;12.38;2.33;;;4.20;99.90;;;;;;5054474;28;20032;-60
2022/01/06 00:03:42;;;;;;;8.48;1.45;;;4.20;99.90;;;;;;5051842;28;20044;-60
2022/01/06 00:06:09;;;;;;;12.70;2.00;;;4.20;99.90;;;;;;5054531;28;20045;-61
2022/01/06 00:08:36;;;;;;;12.45;2.83;;;4.20;99.90;;;;;;5049569;28;20025;-61
2022/01/06 00:11:05;;;;;;;9.88;1.83;;;4.20;99.90;;;;;;5054224;28;20499;-60
2022/01/06 00:13:46;;;;;;;10.75;1.58;;;4.20;99.90;;;;;;5054295;28;20084;-61
2022/01/06 00:24:14;;;;;;;10.35;1.75;;;4.10;99.90;;;;;;5053787;28;20377;-61
2022/01/06 00:26:40;;;;;;;6.68;1.40;;;4.10;99.90;;;;;;5049951;28;20025;-60
2022/01/06 00:29:06;;;;;;;11.43;1.25;;;4.10;99.90;;;;;;5054183;28;20025;-61
2022/01/06 00:31:33;;;;;;;17.55;2.45;;;4.00;99.90;;;;;;5051281;28;20038;-60
2022/01/06 00:33:59;;;;;;;8.43;1.30;;;4.10;99.90;;;;;;5053959;28;20037;-60
2022/01/06 00:36:24;;;;;;;12.45;2.38;;;4.00;99.90;;;;;;5051194;28;20473;-60
2022/01/06 00:38:50;;;;;;;13.73;2.30;;;4.00;99.90;;;;;;5051205;28;20168;-61
2022/01/06 00:41:16;;;;;;;11.77;1.77;;;4.00;99.90;;;;;;5050826;28;20025;-60
2022/01/06 00:43:42;;;;;;;10.43;2.40;;;4.00;99.90;;;;;;5051072;28;20025;-60
2022/01/06 00:46:07;;;;;;;9.82;1.60;;;4.00;99.90;;;;;;5053830;28;20155;-60
2022/01/06 00:48:33;;;;;;;10.95;2.05;;;4.00;99.90;;;;;;5048136;28;20017;-60
2022/01/06 00:50:58;;;;;;;9.55;2.10;;;4.00;99.90;;;;;;5052440;28;20033;-60
2022/01/06 00:53:24;;;;;;;7.30;1.30;;;4.00;99.90;;;;;;5053576;28;20380;-60
2022/01/06 00:55:49;;;;;;;16.95;2.10;;;4.00;99.90;;;;;;5050762;28;20052;-60
2022/01/06 00:58:15;;;;;;;12.13;1.58;;;4.00;99.90;;;;;;5050821;28;20389;-60
2022/01/06 01:00:41;;;;;;;13.52;2.03;;;3.90;99.90;;;;;;5053518;28;20021;-60
2022/01/06 01:03:14;;;;;;;6.95;1.65;;;3.90;99.90;;;;;;5051011;28;20029;-61
2022/01/06 01:05:41;;;;;;;9.50;2.78;;;3.90;99.90;;;;;;5051092;28;20087;-60
2022/01/06 01:08:07;;;;;;;4.93;0.95;;;3.90;99.90;;;;;;5053250;28;20033;-60
2022/01/06 01:10:34;;;;;;;9.32;1.50;;;3.90;99.90;;;;;;5051831;28;20031;-61
2022/01/06 01:12:59;;;;;;;13.30;1.15;;;3.90;99.90;;;;;;5045124;28;20030;-61
2022/01/06 01:15:27;;;;;;;12.77;1.50;;;3.90;99.90;;;;;;5054268;28;20547;-61
2022/01/06 01:17:53;;;;;;;13.20;1.80;;;3.90;99.90;;;;;;5053378;28;20037;-61
2022/01/06 01:20:21;;;;;;;13.80;1.50;;;3.90;99.90;;;;;;5053287;28;20087;-61
2022/01/06 01:22:47;;;;;;;10.35;1.45;;;3.90;99.90;;;;;;5053202;28;20025;-60
2022/01/06 01:25:14;;;;;;;15.52;2.13;;;3.90;99.90;;;;;;5050271;28;20025;-60
2022/01/06 01:27:42;;;;;;;9.98;1.92;;;3.90;99.90;;;;;;5044580;28;20431;-61
2022/01/06 01:30:12;;;;;;;10.93;1.40;;;3.80;99.90;;;;;;5044193;28;20029;-60
2022/01/06 01:32:40;;;;;;;12.63;1.90;;;3.80;99.90;;;;;;5050078;28;20029;-60
2022/01/06 01:35:09;;;;;;;9.02;1.30;;;3.80;99.90;;;;;;5051749;28;20071;-61
2022/01/06 01:37:36;;;;;;;11.65;1.60;;;3.80;99.90;;;;;;5052726;28;20017;-60
2022/01/06 01:40:07;;;;;;;4.90;1.20;;;3.80;99.90;;;;;;5052757;28;20036;-60
2022/01/06 01:42:33;;;;;;;13.93;1.92;;;3.80;99.90;;;;;;5049733;28;20021;-61
2022/01/06 01:45:01;;;;;;;6.65;1.20;;;3.80;99.90;;;;;;5050165;28;20121;-60
2022/01/06 01:47:31;;;;;;;10.70;1.40;;;3.80;99.90;;;;;;5049290;28;20021;-61
2022/01/06 01:50:10;;;;;;;10.27;1.90;;;3.80;99.90;;;;;;5048432;28;20013;-60
2022/01/06 01:52:37;;;;;;;11.32;1.30;;;3.80;99.90;;;;;;5052129;28;20112;-60
2022/01/06 01:55:04;;;;;;;5.88;1.00;;;3.70;99.90;;;;;;5049790;28;20021;-60
2022/01/06 01:57:30;;;;;;;6.40;0.88;;;3.70;99.90;;;;;;5050920;28;20025;-61
2022/01/06 01:59:55;;;;;;;8.98;1.98;;;3.70;99.90;;;;;;5052237;28;20021;-60
2022/01/06 02:02:21;;;;;;;17.27;2.85;;;3.70;99.90;;;;;;5052431;28;20021;-60
2022/01/06 02:04:49;;;;;;;6.25;1.00;;;3.70;99.90;;;;;;5049527;28;20043;-60
2022/01/06 02:07:15;;;;;;;9.50;1.40;;;3.70;99.90;;;;;;5052095;28;20075;-61
2022/01/06 02:09:40;;;;;;;9.98;1.55;;;3.70;99.90;;;;;;5049636;28;20029;-60
2022/01/06 02:12:06;;;;;;;7.57;1.50;;;3.70;99.90;;;;;;5049292;28;20045;-61
2022/01/06 02:14:34;;;;;;;8.35;1.40;;;3.70;99.90;;;;;;5051850;28;20499;-60
2022/01/06 02:17:00;;;;;;;10.07;1.52;;;3.70;99.90;;;;;;5046222;28;20025;-61
2022/01/06 02:19:26;;;;;;;5.65;1.50;;;3.70;99.90;;;;;;5050786;28;20104;-61
2022/01/06 02:21:52;;;;;;;6.38;1.50;;;3.70;99.90;;;;;;5037281;28;20010;-60
2022/01/06 02:24:18;;;;;;;8.32;1.02;;;3.60;99.90;;;;;;5044755;28;20033;-60
2022/01/06 02:26:43;;;;;;;8.55;1.17;;;3.70;99.90;;;;;;5049790;28;20070;-61
2022/01/06 02:29:10;;;;;;;6.28;1.10;;;3.60;99.90;;;;;;5051765;28;20041;-60
2022/01/06 02:31:43;;;;;;;6.97;1.00;;;3.60;99.90;;;;;;5051816;28;20023;-60
2022/01/06 02:34:09;;;;;;;6.15;0.88;;;3.60;99.90;;;;;;5051852;28;20083;-60
2022/01/06 02:36:35;;;;;;;8.30;1.15;;;3.60;99.90;;;;;;5051620;28;20021;-60
2022/01/06 02:39:00;;;;;;;7.82;1.00;;;3.60;99.90;;;;;;5051965;28;20108;-60
2022/01/06 02:41:26;;;;;;;8.27;0.93;;;3.60;99.90;;;;;;5051649;28;20469;-60
2022/01/06 02:43:52;;;;;;;12.13;1.55;;;3.50;99.90;;;;;;5051622;28;20021;-60
2022/01/06 02:46:17;;;;;;;5.47;1.35;;;3.50;99.90;;;;;;5051531;28;20374;-60
2022/01/06 02:48:42;;;;;;;8.43;0.90;;;3.50;99.90;;;;;;5051578;28;20044;-60
2022/01/06 02:51:08;;;;;;;5.85;0.85;;;3.50;99.90;;;;;;5051833;28;20079;-60
2022/01/06 02:53:34;;;;;;;4.80;0.80;;;3.50;99.90;;;;;;5051536;28;20060;-60
2022/01/06 02:56:00;;;;;;;6.43;0.90;;;3.50;99.90;;;;;;5048716;28;20033;-60
2022/01/06 02:58:26;;;;;;;4.63;0.73;;;3.50;99.90;;;;;;5049550;28;20021;-60
2022/01/06 03:00:52;;;;;;;5.88;1.83;;;3.50;99.90;;;;;;5043551;28;20020;-60
2022/01/06 03:03:17;;;;;;;8.20;0.73;;;3.40;99.90;;;;;;5048553;28;20124;-60
2022/01/06 03:05:43;;;;;;;9.32;0.75;;;3.40;99.90;;;;;;5052161;28;20104;-61
2022/01/06 03:08:09;;;;;;;2.90;0.60;;;3.30;99.90;;;;;;5047316;28;20481;-60
2022/01/06 03:10:36;;;;;;;3.53;0.63;;;3.30;99.90;;;;;;5049567;28;20544;-60
2022/01/06 03:13:02;;;;;;;3.85;0.63;;;3.30;99.90;;;;;;5047606;28;20108;-61
2022/01/06 03:15:27;;;;;;;5.20;0.77;;;3.30;99.90;;;;;;5046967;28;20095;-60
2022/01/06 03:17:56;;;;;;;2.13;0.52;;;3.20;99.90;;;;;;5047166;28;20493;-61
2022/01/06 03:20:23;;;;;;;3.75;0.50;;;3.20;99.90;;;;;;5047503;28;20107;-61
2022/01/06 03:22:50;;;;;;;4.85;0.70;;;3.20;99.90;;;;;;5052564;28;20040;-61
2022/01/06 03:25:16;;;;;;;2.97;0.60;;;3.20;99.90;;;;;;5049538;28;20021;-61
2022/01/06 03:27:42;;;;;;;4.78;0.75;;;3.10;99.90;;;;;;5052405;28;20047;-61
2022/01/06 03:30:13;;;;;;;5.32;0.70;;;3.10;99.90;;;;;;5051890;28;20033;-60
2022/01/06 03:32:38;;;;;;;7.13;0.85;;;3.10;99.90;;;;;;5050882;28;20142;-60
2022/01/06 03:35:05;;;;;;;5.38;0.70;;;3.10;99.90;;;;;;5048149;28;20036;-60
2022/01/06 03:37:30;;;;;;;9.32;0.90;;;3.10;99.90;;;;;;5048444;28;20025;-61
2022/01/06 03:39:56;;;;;;;5.15;0.85;;;3.00;99.90;;;;;;5043716;28;20090;-61
2022/01/06 03:42:22;;;;;;;4.85;1.23;;;3.00;99.90;;;;;;5045795;28;20024;-60
2022/01/06 03:44:49;;;;;;;6.90;0.80;;;3.00;99.90;;;;;;5045923;28;20082;-60
2022/01/06 03:47:14;;;;;;;4.35;0.88;;;3.00;99.90;;;;;;5046023;28;20017;-60
2022/01/06 03:49:40;;;;;;;10.43;1.23;;;3.00;99.90;;;;;;5046927;28;20484;-60
2022/01/06 03:52:05;;;;;;;8.32;1.20;;;3.00;99.90;;;;;;5052146;28;20516;-60
2022/01/06 03:54:31;;;;;;;6.70;1.10;;;3.00;99.90;;;;;;5052047;28;20044;-60
2022/01/06 03:56:58;;;;;;;4.53;0.82;;;3.00;99.90;;;;;;5043699;28;20057;-60
2022/01/06 03:59:24;;;;;;;8.02;1.70;;;3.10;99.90;;;;;;5043766;28;20412;-60
2022/01/06 04:01:50;;;;;;;7.20;1.40;;;3.10;99.90;;;;;;5047630;28;20062;-61
2022/01/06 04:04:15;;;;;;;8.57;1.20;;;3.10;99.90;;;;;;5034539;28;20493;-60
2022/01/06 04:06:41;;;;;;;8.75;1.15;;;3.10;99.90;;;;;;5043725;28;20029;-61
2022/01/06 04:09:07;;;;;;;8.10;1.73;;;3.00;99.90;;;;;;5036187;28;20066;-61
2022/01/06 04:11:33;;;;;;;6.55;1.42;;;3.00;99.90;;;;;;5042779;28;20099;-60
2022/01/06 04:13:59;;;;;;;12.25;1.52;;;3.00;99.90;;;;;;5037458;28;20508;-61
2022/01/06 04:16:26;;;;;;;7.53;1.10;;;3.00;99.90;;;;;;5041022;28;20021;-60
2022/01/06 04:18:52;;;;;;;9.20;1.00;;;3.00;99.90;;;;;;5037250;28;20492;-60
2022/01/06 04:21:18;;;;;;;9.15;1.83;;;3.00;99.90;;;;;;5034212;28;20064;-60
2022/01/06 04:23:43;;;;;;;7.25;1.00;;;3.00;99.90;;;;;;5042493;28;20470;-60
2022/01/06 04:26:09;;;;;;;7.35;1.00;;;3.00;99.90;;;;;;5042789;28;20060;-60
2022/01/06 04:28:36;;;;;;;6.70;0.73;;;3.00;99.90;;;;;;5039736;28;20079;-60
2022/01/06 04:31:01;;;;;;;6.40;0.60;;;2.90;99.90;;;;;;5039247;28;20393;-61
2022/01/06 04:33:27;;;;;;;3.65;0.70;;;2.80;99.90;;;;;;5041304;28;20029;-60
2022/01/06 04:35:52;;;;;;;7.03;0.75;;;2.80;99.90;;;;;;5034630;28;20025;-60
2022/01/06 04:38:18;;;;;;;4.65;0.70;;;2.80;99.90;;;;;;5034006;28;20425;-60
2022/01/06 04:40:43;;;;;;;6.40;0.70;;;2.80;99.90;;;;;;5033913;28;20030;-60
2022/01/06 04:43:09;;;;;;;3.90;0.52;;;2.70;99.90;;;;;;5036080;28;20119;-60
2022/01/06 04:45:34;;;;;;;6.95;1.10;;;2.70;99.90;;;;;;5031559;28;20030;-60
2022/01/06 04:48:00;;;;;;;2.28;0.50;;;2.70;99.90;;;;;;5039182;28;20393;-60
2022/01/06 04:50:26;;;;;;;4.18;1.10;;;2.70;99.90;;;;;;5040837;28;20029;-60
2022/01/06 04:52:51;;;;;;;6.38;0.70;;;2.70;99.90;;;;;;5037139;28;20571;-60
2022/01/06 04:55:17;;;;;;;6.60;0.85;;;2.70;99.90;;;;;;5039795;28;20350;-60
2022/01/06 04:57:42;;;;;;;4.45;0.80;;;2.70;99.90;;;;;;5035871;28;20076;-60
2022/01/06 05:00:08;;;;;;;5.78;0.90;;;2.70;99.90;;;;;;5036470;28;20079;-60
2022/01/06 05:02:34;;;;;;;6.97;0.80;;;2.60;99.90;;;;;;5033510;28;20036;-60
2022/01/06 05:05:00;;;;;;;4.10;0.75;;;2.60;99.90;;;;;;5033549;28;20025;-60
2022/01/06 05:07:26;;;;;;;6.07;0.70;;;2.60;99.90;;;;;;5036196;28;20055;-60
2022/01/06 05:09:51;;;;;;;7.90;1.00;;;2.60;99.90;;;;;;5036542;28;20021;-60
2022/01/06 05:12:17;;;;;;;7.25;1.08;;;2.60;99.90;;;;;;5036579;28;20385;-60
2022/01/06 05:14:42;;;;;;;7.80;2.30;;;2.50;99.90;;;;;;5038779;28;20474;-60
2022/01/06 05:17:08;;;;;;;6.72;0.82;;;2.40;99.90;;;;;;5055416;28;20202;-60
2022/01/06 05:19:34;;;;;;;5.28;1.13;;;2.40;99.90;;;;;;5038584;28;20131;-60
2022/01/06 05:22:00;;;;;;;5.40;0.95;;;2.30;99.90;;;;;;5033216;28;20528;-60
2022/01/06 05:24:26;;;;;;;4.38;0.85;;;2.30;99.90;;;;;;5037452;28;20112;-60
2022/01/06 05:26:56;;;;;;;4.88;0.70;;;2.30;99.90;;;;;;5036012;28;20523;-60
2022/01/06 05:29:23;;;;;;;4.45;0.70;;;2.40;99.90;;;;;;5036944;28;20174;-60
2022/01/06 05:31:49;;;;;;;4.07;0.60;;;2.40;99.90;;;;;;5041715;28;20029;-60
2022/01/06 05:34:15;;;;;;;3.83;0.60;;;2.40;99.90;;;;;;5033318;28;20032;-60
2022/01/06 05:36:40;;;;;;;4.43;0.60;;;2.40;99.90;;;;;;5033445;28;20021;-60
2022/01/06 05:39:06;;;;;;;5.72;0.77;;;2.40;99.90;;;;;;5039118;28;20022;-60
2022/01/06 05:41:32;;;;;;;5.45;0.80;;;2.40;99.90;;;;;;5033855;28;20032;-60
2022/01/06 05:43:59;;;;;;;3.08;0.50;;;2.40;99.90;;;;;;5042914;28;20021;-60
2022/01/06 05:46:24;;;;;;;4.43;0.52;;;2.40;99.90;;;;;;5036359;28;20021;-60
2022/01/06 05:48:50;;;;;;;3.13;0.35;;;2.40;99.90;;;;;;5033738;28;20036;-60
2022/01/06 05:51:15;;;;;;;2.70;0.55;;;2.30;99.90;;;;;;5029813;28;20100;-60
2022/01/06 05:53:41;;;;;;;3.58;0.60;;;2.30;99.90;;;;;;5038083;28;20444;-60
2022/01/06 05:56:07;;;;;;;7.53;0.50;;;2.30;99.90;;;;;;5035364;28;20021;-60
2022/01/06 05:58:33;;;;;;;3.88;0.50;;;2.30;99.90;;;;;;5032568;28;20022;-60
2022/01/06 06:00:58;;;;;;;5.13;0.60;;;2.30;99.90;;;;;;5040469;28;20464;-60
2022/01/06 06:03:27;;;;;;;6.90;0.63;;;2.40;99.90;;;;;;5030803;28;20052;-60
2022/01/06 06:05:54;;;;;;;5.03;0.60;;;2.40;99.90;;;;;;5034928;28;20047;-60
2022/01/06 06:08:19;;;;;;;4.15;0.75;;;2.30;99.90;;;;;;5041195;28;20436;-60
2022/01/06 06:10:45;;;;;;;1.38;0.40;;;2.30;99.90;;;;;;5051851;28;20511;-60
2022/01/06 06:13:17;;;;;;;2.78;0.55;;;2.30;99.90;;;;;;5052353;28;20044;-60
2022/01/06 06:15:42;;;;;;;2.60;0.50;;;2.30;99.90;;;;;;5051684;28;20083;-60
2022/01/06 06:18:11;;;;;;;1.25;0.32;;;2.30;99.90;;;;;;5052979;28;20021;-60
2022/01/06 06:20:37;;;;;;;2.75;0.60;;;2.30;99.90;;;;;;5053106;28;20020;-60
2022/01/06 06:23:02;;;;;;;3.22;0.77;;;2.20;99.90;;;;;;5053334;28;20033;-59
2022/01/06 06:25:29;;;;;;;5.35;1.08;;;2.20;99.90;;;;;;5052966;28;20067;-60
2022/01/06 06:27:54;;;;;;;3.60;0.65;;;2.20;99.90;;;;;;5051808;28;20025;-60
2022/01/06 06:30:20;;;;;;;3.63;0.80;;;2.20;99.90;;;;;;5052966;28;20078;-60
2022/01/06 06:32:45;;;;;;;2.22;0.60;;;2.10;99.90;;;;;;5052816;28;20044;-60
2022/01/06 06:35:11;;;;;;;4.97;0.85;;;2.10;99.90;;;;;;5052809;28;20469;-60
2022/01/06 06:37:37;;;;;;;5.30;0.60;;;2.10;99.90;;;;;;5052689;28;20017;-60
2022/01/06 06:40:07;;;;;;;6.05;0.73;;;2.10;99.90;;;;;;5052503;28;20028;-60
2022/01/06 06:42:32;;;;;;;1.55;0.32;;;2.10;99.90;;;;;;5052610;28;20047;-60
2022/01/06 06:44:58;;;;;;;2.53;0.43;;;2.10;99.90;;;;;;5052299;28;20124;-60
2022/01/06 06:47:24;;;;;;;4.57;0.80;;;2.10;99.90;;;;;;5052353;28;20032;-60
2022/01/06 06:49:50;;;;;;;1.55;0.40;;;2.10;99.90;;;;;;5052042;28;20159;-60
2022/01/06 06:52:15;;;;;;;5.15;0.50;;;2.10;99.90;;;;;;5052750;28;20104;-60
2022/01/06 06:54:41;;;;;;;5.55;1.48;;;2.10;99.90;;;;;;5052608;28;20055;-60
2022/01/06 06:57:07;;;;;;;3.03;0.47;;;2.10;99.90;;;;;;5052563;28;20370;-60
2022/01/06 06:59:32;;;;;;;2.22;0.40;;;2.10;99.90;;;;;;5052618;28;20025;-60
2022/01/06 07:01:58;;;;;;;3.00;0.55;;;2.00;99.90;;;;;;5052623;28;20049;-60
2022/01/06 07:04:23;;;;;;;3.45;0.40;;;2.00;99.90;;;;;;5052663;28;20021;-60
2022/01/06 07:06:49;;;;;;;4.90;0.82;;;1.90;99.90;;;;;;5052470;28;20472;-60
2022/01/06 07:09:15;;;;;;;3.30;0.63;;;1.90;99.90;;;;;;5052625;28;20032;-60
2022/01/06 07:11:40;;;;;;;6.25;0.80;;;1.90;99.90;;;;;;5052396;28;20041;-60
2022/01/06 07:14:06;;;;;;;4.38;0.60;;;1.90;99.90;;;;;;5052547;28;20477;-59
2022/01/06 07:16:31;;;;;;;4.15;1.00;;;1.90;99.90;;;;;;5050989;28;20063;-60
2022/01/06 07:18:57;;;;;;;5.15;0.82;;;1.90;99.90;;;;;;5052558;28;20044;-60
2022/01/06 07:21:22;;;;;;;4.07;0.70;;;1.90;99.90;;;;;;5052307;28;20057;-59
2022/01/06 07:23:48;;;;;;;3.00;0.50;;;2.00;99.90;;;;;;5052472;28;20021;-60
2022/01/06 07:26:13;;;;;;;6.95;0.60;;;1.90;99.90;;;;;;5052483;28;20032;-60
2022/01/06 07:28:39;;;;;;;1.75;0.50;;;1.90;99.90;;;;;;5052285;28;20040;-60
2022/01/06 07:31:05;;;;;;;2.78;0.40;;;1.90;99.90;;;;;;5052025;28;20032;-60
2022/01/06 07:33:31;;;;;;;6.10;0.80;;;1.80;99.90;;;;;;5051907;28;20027;-60
2022/01/06 07:35:57;;;;;;;3.88;0.68;;;1.90;99.90;;;;;;5049428;28;20130;-60
2022/01/06 07:38:23;;;;;;;5.55;0.73;;;1.90;99.90;;;;;;5048641;28;20485;-60
2022/01/06 07:40:49;;;;;;;2.95;0.88;;;1.90;99.90;;;;;;5050649;28;20025;-60
2022/01/06 07:43:14;;;;;;;4.40;0.80;;;1.90;99.90;;;;;;5049037;28;20443;-60
2022/01/06 07:45:40;;;;;;;5.10;0.77;;;1.90;99.90;;;;;;5044625;28;20116;-60
2022/01/06 07:48:15;;;;;;;3.50;0.70;;;1.90;99.90;;;;;;5047764;28;20033;-60
2022/01/06 07:50:41;;;;;;;5.13;0.80;;;1.90;99.90;;;;;;5053131;28;20032;-60
2022/01/06 07:53:14;;;;;;;3.80;0.80;;;1.90;99.90;;;;;;5055870;28;20029;-60
2022/01/06 07:55:39;;;;;;;6.72;0.88;;;1.90;99.90;;;;;;5055894;28;20032;-60
2022/01/06 07:58:05;;;;;;;4.18;0.70;;;1.90;99.90;;;;;;5055708;28;20025;-60
2022/01/06 08:00:31;;;;;;;2.65;0.70;;;2.00;99.90;;;;;;5051911;28;20092;-61
2022/01/06 08:02:57;;;;;;;5.35;0.80;;;2.00;99.90;;;;;;5042684;28;20088;-59
2022/01/06 08:05:27;;;;;;;4.38;1.77;;;2.00;99.90;;;;;;5035100;28;20072;-60
2022/01/06 08:07:53;;;;;;;4.40;0.57;;;2.00;99.90;;;;;;5046239;28;20449;-60
2022/01/06 08:10:19;;;;;;;2.22;0.60;;;2.00;99.90;;;;;;5055129;28;20036;-60
2022/01/06 08:12:45;;;;;;;7.78;1.00;;;2.10;99.90;;;;;;5054790;28;20037;-60
2022/01/06 08:15:11;;;;;;;3.22;0.60;;;2.10;99.90;;;;;;5055255;28;20021;-60
2022/01/06 08:17:37;;;;;;;7.22;1.20;;;2.10;99.90;;;;;;5054768;28;20450;-61
2022/01/06 08:20:04;;;;;;;2.13;0.47;;;2.10;99.90;;;;;;5052428;28;20079;-60
2022/01/06 08:22:30;;;;;;;3.78;0.45;;;2.10;99.90;;;;;;5055220;28;20028;-60
2022/01/06 08:24:56;;;;;;;2.63;0.60;;;2.10;99.90;;;;;;5054106;28;20028;-60
2022/01/06 08:27:23;;;;;;;4.03;0.63;;;2.10;99.90;;;;;;5052630;28;20615;-60
2022/01/06 08:29:50;;;;;;;3.05;0.70;;;2.20;99.90;;;;;;5054921;28;20025;-60
2022/01/06 08:32:16;;;;;;;8.68;1.92;;;2.20;99.90;;;;;;5054596;28;20603;-60
2022/01/06 08:34:41;;;;;;;5.00;0.95;;;2.20;99.90;;;;;;5054299;28;20087;-60
2022/01/06 08:37:07;;;;;;;4.88;0.75;;;2.20;99.90;;;;;;5054397;28;20035;-60
2022/01/06 08:39:32;;;;;;;5.05;0.80;;;2.20;99.90;;;;;;5054497;28;20096;-59
2022/01/06 08:41:58;;;;;;;4.93;0.80;;;2.20;99.90;;;;;;5053045;28;20052;-59
2022/01/06 08:44:23;;;;;;;5.35;0.65;;;2.20;99.90;;;;;;5054522;28;20029;-60
2022/01/06 08:46:49;;;;;;;6.43;1.40;;;2.20;99.90;;;;;;5053249;28;20480;-59
2022/01/06 08:49:15;;;;;;;9.15;0.85;;;2.20;99.90;;;;;;5054534;28;20029;-59
2022/01/06 08:51:42;;;;;;;10.00;1.40;;;2.20;99.90;;;;;;5054354;28;20059;-60
2022/01/06 08:54:08;;;;;;;4.43;0.90;;;2.20;99.90;;;;;;5054187;28;20029;-59
2022/01/06 08:56:34;;;;;;;4.07;0.88;;;2.20;99.90;;;;;;5054044;28;20448;-60
2022/01/06 08:59:00;;;;;;;4.90;1.00;;;2.30;99.90;;;;;;5054152;28;20169;-59
2022/01/06 09:01:25;;;;;;;7.25;1.45;;;2.40;99.90;;;;;;5053246;28;20500;-59
2022/01/06 09:03:51;;;;;;;3.30;0.80;;;2.40;99.90;;;;;;5053732;28;20029;-59
2022/01/06 09:06:17;;;;;;;3.92;1.23;;;2.50;99.90;;;;;;5053921;28;20537;-59
2022/01/06 09:08:42;;;;;;;4.93;1.25;;;2.50;99.90;;;;;;5050217;28;20068;-59
2022/01/06 09:11:08;;;;;;;6.95;1.65;;;2.60;99.90;;;;;;5052334;28;20128;-59
2022/01/06 09:13:34;;;;;;;5.25;1.83;;;2.60;99.90;;;;;;5052212;28;20505;-60
2022/01/06 09:15:59;;;;;;;8.02;2.25;;;2.70;99.90;;;;;;5050973;28;20033;-60
2022/01/06 09:18:25;;;;;;;8.68;1.90;;;2.80;99.90;;;;;;5050579;28;20068;-59
2022/01/06 09:20:50;;;;;;;10.35;2.72;;;2.80;99.90;;;;;;5053769;28;20428;-59
2022/01/06 09:23:16;;;;;;;9.80;2.05;;;2.80;99.90;;;;;;5053410;28;20424;-60
2022/01/06 09:25:43;;;;;;;7.40;1.67;;;2.90;99.90;;;;;;5053504;28;20537;-60
2022/01/06 09:28:09;;;;;;;7.43;1.80;;;2.90;99.90;;;;;;5053350;28;20025;-60
2022/01/06 09:30:35;;;;;;;7.93;2.53;;;3.00;99.90;;;;;;5051743;28;20070;-59
2022/01/06 09:33:00;;;;;;;7.20;2.45;;;3.00;99.90;;;;;;5049600;28;20028;-60
2022/01/06 09:35:26;;;;;;;9.60;2.97;;;3.00;99.90;;;;;;5051487;28;20021;-60
2022/01/06 09:37:51;;;;;;;6.50;1.90;;;3.20;99.90;;;;;;5049365;28;20025;-60
2022/01/06 09:40:17;;;;;;;5.13;1.58;;;3.30;99.90;;;;;;5048488;28;20028;-60
2022/01/06 09:42:43;;;;;;;13.60;2.70;;;3.40;99.90;;;;;;5048143;28;20022;-60
2022/01/06 09:45:09;;;;;;;9.00;2.25;;;3.50;99.90;;;;;;5049887;28;20116;-60
2022/01/06 09:47:37;;;;;;;7.88;1.55;;;3.60;99.90;;;;;;5052678;28;20108;-60
2022/01/06 09:50:03;;;;;;;6.95;1.48;;;3.80;99.90;;;;;;5053209;28;20025;-60
2022/01/06 09:52:29;;;;;;;2.88;1.08;;;3.90;99.90;;;;;;5052187;28;20083;-60
2022/01/06 09:55:04;;;;;;;9.70;1.60;;;4.20;99.90;;;;;;5052842;28;20033;-60
2022/01/06 09:57:30;;;;;;;5.68;1.73;;;4.40;99.90;;;;;;5053057;28;20100;-60
2022/01/06 09:59:56;;;;;;;6.63;1.90;;;4.60;99.90;;;;;;5052912;28;20105;-60
2022/01/06 10:02:31;;;;;;;9.95;1.90;;;4.80;99.90;;;;;;5052938;28;20366;-60
2022/01/06 10:05:00;;;;;;;5.60;1.65;;;5.00;99.90;;;;;;5052821;28;20481;-60
2022/01/06 10:07:26;;;;;;;9.23;1.58;;;5.30;99.90;;;;;;5052611;28;20037;-60
2022/01/06 10:09:52;;;;;;;7.57;1.60;;;5.60;99.90;;;;;;5052659;28;20437;-60
2022/01/06 10:12:18;;;;;;;7.75;2.17;;;5.90;99.90;;;;;;5052451;28;20080;-60
2022/01/06 10:14:49;;;;;;;5.35;1.88;;;6.30;99.90;;;;;;5052172;28;20120;-60
2022/01/06 10:17:36;;;;;;;5.75;2.20;;;6.60;99.90;;;;;;5052703;28;20028;-61
2022/01/06 10:20:10;;;;;;;5.32;1.40;;;7.00;99.90;;;;;;5052390;28;20065;-60
2022/01/06 10:22:55;;;;;;;7.43;1.70;;;7.40;99.90;;;;;;5052432;28;20021;-61
2022/01/06 10:25:24;;;;;;;6.25;1.70;;;7.90;99.90;;;;;;5052331;28;20064;-61
2022/01/06 10:27:52;;;;;;;5.65;1.77;;;8.20;99.90;;;;;;5052429;28;20044;-60
2022/01/06 10:30:18;;;;;;;6.38;1.52;;;8.60;99.90;;;;;;5052467;28;20041;-60
2022/01/06 10:32:43;;;;;;;6.22;1.15;;;8.80;99.90;;;;;;5052529;28;20040;-61
2022/01/06 10:35:11;;;;;;;6.93;1.45;;;9.40;99.80;;;;;;5052291;28;20477;-61
2022/01/06 10:37:43;;;;;;;7.80;1.73;;;9.80;98.90;;;;;;5048558;28;20503;-61
2022/01/06 10:40:11;;;;;;;6.72;2.05;;;9.90;98.30;;;;;;5051692;28;20027;-61
2022/01/06 10:42:43;;;;;;;5.68;2.10;;;10.30;97.70;;;;;;5051949;28;20105;-61
2022/01/06 10:45:14;;;;;;;5.85;2.03;;;10.60;96.90;;;;;;5052104;28;20029;-61
2022/01/06 10:50:33;;;;;;;4.28;1.20;;;11.00;95.90;;;;;;5052193;28;20044;-61
2022/01/06 10:53:10;;;;;;;6.88;1.88;;;11.00;95.50;;;;;;5051915;28;20025;-62
2022/01/06 10:55:43;;;;;;;9.15;1.60;;;10.80;95.30;;;;;;5051887;28;20503;-61
2022/01/06 10:58:20;;;;;;;7.97;2.47;;;10.90;95.10;;;;;;5052046;28;20061;-61
2022/01/06 11:00:48;;;;;;;7.47;1.58;;;11.00;94.90;;;;;;5051989;28;20028;-61
2022/01/06 11:03:21;;;;;;;6.38;1.77;;;11.20;94.60;;;;;;5052061;28;20071;-61
2022/01/06 11:05:56;;;;;;;6.38;1.55;;;11.70;93.90;;;;;;5052005;28;20029;-61
2022/01/06 11:08:28;;;;;;;6.35;1.63;;;12.20;92.90;;;;;;5051831;28;20469;-62
2022/01/06 11:13:32;;;;;;;4.90;1.58;;;12.30;91.80;;;;;;5051881;28;20025;-61
2022/01/06 11:15:58;;;;;;;8.45;1.67;;;12.20;92.00;;;;;;5051668;28;20021;-61
2022/01/06 11:18:23;;;;;;;7.13;2.08;;;12.30;92.00;;;;;;5050736;28;20067;-61
2022/01/06 11:20:50;;;;;;;9.82;3.72;;;12.60;91.20;;;;;;5049897;28;20481;-61
2022/01/06 11:23:21;;;;;;;9.55;3.45;;;13.30;90.40;;;;;;5051816;28;20068;-61
2022/01/06 11:25:47;;;;;;;9.60;2.92;;;14.00;89.00;;;;;;5053603;28;20032;-61
2022/01/06 11:28:37;;;;;;;7.47;2.45;;;14.30;86.60;;;;;;5055776;28;20029;-61
2022/01/06 11:31:18;;;;;;;6.88;2.13;;;14.60;84.50;;;;;;5054490;28;20025;-61
2022/01/06 11:33:46;;;;;;;8.02;2.03;;;14.90;82.80;;;;;;5053670;28;20059;-61
2022/01/06 11:36:20;;;;;;;5.60;1.70;;;15.20;82.60;;;;;;5055547;28;20029;-61
2022/01/06 11:38:48;;;;;;;6.95;1.67;;;15.70;81.20;;;;;;5053544;28;20094;-61
2022/01/06 11:41:14;;;;;;;8.27;2.30;;;16.30;79.30;;;;;;5054910;28;20028;-61
2022/01/06 11:43:41;;;;;;;6.40;1.92;;;16.60;75.90;;;;;;5055255;28;20029;-61
2022/01/06 11:46:08;;;;;;;7.90;2.25;;;16.70;74.20;;;;;;5055230;28;20060;-62
2022/01/06 11:48:52;;;;;;;6.80;1.77;;;16.70;73.70;;;;;;5054173;28;20501;-62
2022/01/06 11:51:36;;;;;;;8.30;2.22;;;16.80;73.10;;;;;;5048931;28;20025;-61
2022/01/06 11:54:19;;;;;;;7.53;1.73;;;17.10;71.40;;;;;;5038596;28;20392;-62
2022/01/06 11:56:51;;;;;;;5.72;2.00;;;18.10;70.30;;;;;;5053286;28;20381;-61
2022/01/06 11:59:28;;;;;;;3.80;1.42;;;19.10;67.50;;;;;;5053861;28;20020;-62
2022/01/06 12:01:54;;;;;;;8.05;1.70;;;20.40;64.10;;;;;;5051143;28;20033;-61
2022/01/06 12:04:24;;;;;;;4.20;1.70;;;21.40;60.80;;;;;;5052735;28;20033;-62
2022/01/06 12:06:50;;;;;;;5.45;1.75;;;22.60;58.90;;;;;;5025235;28;20791;-62
2022/01/06 12:09:18;;;;;;;5.80;2.08;;;23.60;56.10;;;;;;5054625;28;20078;-62
2022/01/06 12:11:45;;;;;;;4.25;1.50;;;24.30;53.90;;;;;;5054512;28;20397;-62
2022/01/06 12:14:11;;;;;;;4.00;1.98;;;24.90;52.40;;;;;;5054683;28;20511;-62
2022/01/06 12:16:39;;;;;;;5.35;1.80;;;25.30;50.80;;;;;;5054837;28;20033;-62
2022/01/06 12:19:16;;;;;;;6.18;1.42;;;25.80;50.20;;;;;;5055237;28;20025;-62
2022/01/06 12:21:42;;;;;;;5.68;1.80;;;26.50;48.10;;;;;;5054730;28;20419;-62
2022/01/06 12:24:09;;;;;;;5.30;1.73;;;26.70;47.50;;;;;;5054697;28;20029;-62
2022/01/06 12:26:36;;;;;;;5.13;1.98;;;27.20;46.70;;;;;;5054622;28;20481;-62
2022/01/06 12:29:04;;;;;;;5.10;1.65;;;27.30;45.80;;;;;;5054430;28;20025;-62
2022/01/06 12:31:31;;;;;;;4.83;1.60;;;27.70;45.20;;;;;;5054318;28;20111;-62
2022/01/06 12:34:04;;;;;;;5.53;2.10;;;28.00;44.40;;;;;;5048875;28;20466;-62
2022/01/06 12:36:38;;;;;;;5.50;1.63;;;28.30;43.80;;;;;;5044854;28;20067;-62
2022/01/06 12:39:11;;;;;;;4.90;1.85;;;28.60;42.90;;;;;;5050613;28;20503;-60
2022/01/06 12:41:37;;;;;;;6.53;1.83;;;28.80;42.50;;;;;;5053055;28;20024;-60
2022/01/06 12:44:03;;;;;;;5.57;1.60;;;28.90;42.40;;;;;;5050320;28;20468;-60
2022/01/06 12:46:31;;;;;;;4.75;1.40;;;29.20;41.80;;;;;;5053226;28;20100;-61
2022/01/06 12:48:57;;;;;;;7.43;2.20;;;29.20;40.60;;;;;;5050567;28;20610;-61
2022/01/06 12:51:26;;;;;;;5.63;2.03;;;29.30;40.10;;;;;;5053036;28;20264;-60
2022/01/06 12:54:03;;;;;;;4.65;1.75;;;29.20;40.10;;;;;;5049527;28;20028;-60
2022/01/06 12:56:29;;;;;;;6.35;1.75;;;29.30;40.00;;;;;;5048328;28;20024;-61
2022/01/06 12:58:56;;;;;;;5.65;1.60;;;29.10;39.80;;;;;;5049994;28;20062;-60
2022/01/06 13:01:23;;;;;;;7.20;1.60;;;29.00;38.90;;;;;;5050594;28;20227;-60
2022/01/06 13:03:53;;;;;;;3.10;1.45;;;28.90;38.60;;;;;;5048263;28;20032;-60
2022/01/06 13:06:20;;;;;;;6.57;1.38;;;29.20;38.80;;;;;;5049016;28;20033;-60